createdAt,value
2022-10-16T00:01:07.269Z,20.59
2022-10-16T00:04:31.292Z,21.02
2022-10-16T00:07:55.236Z,21.50
2022-10-16T00:11:24.373Z,21.44
2022-10-16T00:14:51.265Z,21.52
2022-10-16T00:18:15.263Z,21.12
2022-10-16T00:21:42.342Z,21.60
2022-10-16T00:25:23.254Z,21.60
2022-10-16T00:28:47.292Z,22.10
2022-10-16T00:32:11.260Z,21.16
2022-10-16T00:35:37.267Z,21.29
2022-10-16T00:39:02.859Z,21.88
2022-10-16T00:42:32.284Z,21.76
2022-10-16T00:45:55.269Z,20.70
2022-10-16T00:49:23.305Z,21.18
2022-10-16T00:52:47.266Z,20.70
2022-10-16T00:56:11.290Z,20.85
2022-10-16T00:59:39.293Z,21.30
2022-10-16T01:03:17.371Z,20.90
2022-10-16T01:07:04.386Z,21.06
2022-10-16T01:10:38.401Z,20.64
2022-10-16T01:14:05.304Z,21.14
2022-10-16T01:17:35.401Z,21.23
2022-10-16T01:21:14.387Z,21.07
2022-10-16T01:24:49.354Z,21.06
2022-10-16T01:28:13.398Z,20.29
2022-10-16T01:31:43.287Z,21.27
2022-10-16T01:35:36.433Z,21.02
2022-10-16T01:39:02.333Z,20.43
2022-10-16T01:42:33.331Z,20.78
2022-10-16T01:45:57.285Z,21.46
2022-10-16T01:49:20.322Z,21.04
2022-10-16T01:52:44.286Z,20.42
2022-10-16T01:56:09.420Z,20.48
2022-10-16T01:59:36.315Z,20.75
2022-10-16T02:03:04.361Z,20.27
2022-10-16T02:06:28.437Z,20.85
2022-10-16T02:09:51.311Z,20.37
2022-10-16T02:13:50.313Z,20.04
2022-10-16T02:17:14.331Z,20.33
2022-10-16T02:20:35.896Z,20.45
2022-10-16T02:24:12.332Z,20.52
2022-10-16T02:28:07.310Z,20.42
2022-10-16T02:31:35.343Z,19.88
2022-10-16T02:34:59.349Z,20.04
2022-10-16T02:38:22.454Z,20.30
2022-10-16T02:41:45.404Z,19.81
2022-10-16T02:45:09.330Z,19.24
2022-10-16T02:48:33.341Z,19.33
2022-10-16T02:51:56.345Z,20.00
2022-10-16T02:55:19.321Z,19.45
2022-10-16T02:58:42.320Z,19.47
2022-10-16T03:02:05.351Z,19.12
2022-10-16T03:05:29.301Z,18.60
2022-10-16T03:08:52.345Z,18.27
2022-10-16T03:12:17.435Z,17.90
2022-10-16T03:15:40.332Z,17.59
2022-10-16T03:19:05.425Z,17.60
2022-10-16T03:22:29.354Z,17.52
2022-10-16T03:25:53.324Z,17.47
2022-10-16T03:29:17.359Z,17.39
2022-10-16T03:32:40.357Z,17.76
2022-10-16T03:36:11.339Z,17.95
2022-10-16T03:39:36.430Z,17.39
2022-10-16T03:43:04.591Z,17.24
2022-10-16T03:46:29.331Z,17.17
2022-10-16T03:49:55.360Z,16.94
2022-10-16T03:53:18.340Z,16.84
2022-10-16T03:56:42.428Z,16.92
2022-10-16T04:00:06.460Z,16.55
2022-10-16T04:03:32.405Z,16.75
2022-10-16T04:06:56.345Z,16.64
2022-10-16T04:10:20.371Z,16.43
2022-10-16T04:13:44.357Z,16.40
2022-10-16T04:17:08.344Z,16.60
2022-10-16T04:20:31.373Z,16.48
2022-10-16T04:23:55.364Z,16.66
2022-10-16T04:27:19.351Z,16.40
2022-10-16T04:30:44.440Z,16.69
2022-10-16T04:34:08.379Z,16.93
2022-10-16T04:37:32.405Z,16.97
2022-10-16T04:40:58.475Z,16.99
2022-10-16T04:44:22.365Z,16.69
2022-10-16T04:47:46.454Z,16.41
2022-10-16T04:51:10.407Z,16.77
2022-10-16T04:54:34.358Z,16.76
2022-10-16T04:57:58.408Z,16.92
2022-10-16T05:01:22.374Z,16.67
2022-10-16T05:04:46.404Z,16.46
2022-10-16T05:08:09.346Z,16.78
2022-10-16T05:11:34.401Z,16.59
2022-10-16T05:14:58.345Z,15.95
2022-10-16T05:18:22.377Z,15.93
2022-10-16T05:21:46.402Z,15.63
2022-10-16T05:25:10.376Z,15.43
2022-10-16T05:28:35.446Z,15.41
2022-10-16T05:31:58.353Z,15.37
2022-10-16T05:35:21.404Z,15.46
2022-10-16T05:38:44.389Z,15.50
2022-10-16T05:42:08.401Z,15.44
2022-10-16T05:45:32.463Z,15.41
2022-10-16T05:48:56.380Z,15.41
2022-10-16T05:52:20.389Z,15.36
2022-10-16T05:55:44.426Z,15.51
2022-10-16T05:59:08.377Z,15.30
2022-10-16T06:02:32.482Z,15.21
2022-10-16T06:05:56.367Z,15.12
2022-10-16T06:09:20.407Z,15.09
2022-10-16T06:12:44.417Z,14.96
2022-10-16T06:16:07.403Z,14.86
2022-10-16T06:19:31.427Z,14.73
2022-10-16T06:22:48.987Z,14.82
2022-10-16T06:26:23.423Z,14.73
2022-10-16T06:29:47.434Z,14.62
2022-10-16T06:33:12.350Z,14.51
2022-10-16T06:36:35.430Z,14.47
2022-10-16T06:40:01.427Z,14.42
2022-10-16T06:43:24.417Z,14.34
2022-10-16T06:46:48.413Z,14.31
2022-10-16T06:50:12.402Z,14.32
2022-10-16T06:53:39.762Z,14.27
2022-10-16T06:57:14.396Z,14.19
2022-10-16T07:00:38.456Z,14.10
2022-10-16T07:04:02.415Z,14.11
2022-10-16T07:07:26.440Z,14.15
2022-10-16T07:10:50.406Z,14.15
2022-10-16T07:14:14.405Z,14.07
2022-10-16T07:17:39.371Z,14.13
2022-10-16T07:21:03.455Z,14.10
2022-10-16T07:24:29.419Z,14.00
2022-10-16T07:27:52.457Z,13.96
2022-10-16T07:31:22.438Z,14.01
2022-10-16T07:34:45.461Z,13.92
2022-10-16T07:38:09.412Z,13.95
2022-10-16T07:41:34.440Z,13.84
2022-10-16T07:44:59.446Z,13.91
2022-10-16T07:48:23.427Z,13.74
2022-10-16T07:51:47.450Z,13.68
2022-10-16T07:55:10.429Z,13.72
2022-10-16T07:58:34.451Z,13.76
2022-10-16T08:01:51.197Z,13.68
2022-10-16T08:08:38.460Z,13.64
2022-10-16T08:12:02.615Z,13.69
2022-10-16T08:15:26.461Z,13.65
2022-10-16T08:18:54.480Z,13.62
2022-10-16T08:22:19.456Z,13.50
2022-10-16T08:25:43.446Z,13.52
2022-10-16T08:29:07.540Z,13.56
2022-10-16T08:32:31.811Z,13.50
2022-10-16T08:35:56.460Z,13.48
2022-10-16T08:39:20.447Z,13.52
2022-10-16T08:43:03.443Z,13.39
2022-10-16T08:46:55.430Z,13.43
2022-10-16T08:50:27.434Z,13.36
2022-10-16T08:54:06.503Z,13.26
2022-10-16T08:57:37.469Z,13.39
2022-10-16T09:01:10.558Z,13.23
2022-10-16T09:05:00.485Z,13.25
2022-10-16T09:08:30.423Z,13.29
2022-10-16T09:12:21.493Z,13.12
2022-10-16T09:15:50.447Z,13.21
2022-10-16T09:19:22.487Z,13.16
2022-10-16T09:22:53.474Z,13.15
2022-10-16T09:26:18.498Z,13.18
2022-10-16T09:29:42.483Z,13.11
2022-10-16T09:33:07.435Z,13.10
2022-10-16T09:36:31.493Z,13.08
2022-10-16T09:40:10.457Z,13.03
2022-10-16T09:44:06.577Z,13.10
2022-10-16T09:47:36.457Z,13.06
2022-10-16T09:51:00.505Z,13.06
2022-10-16T09:54:23.462Z,13.11
2022-10-16T09:57:46.463Z,13.02
2022-10-16T10:01:10.460Z,13.18
2022-10-16T10:04:37.483Z,12.84
2022-10-16T10:08:01.472Z,12.99
2022-10-16T10:11:24.502Z,12.93
2022-10-16T10:14:49.471Z,13.00
2022-10-16T10:18:14.503Z,13.14
2022-10-16T10:21:37.501Z,13.14
2022-10-16T10:25:26.480Z,13.22
2022-10-16T10:29:14.484Z,13.41
2022-10-16T10:32:48.500Z,13.39
2022-10-16T10:36:35.486Z,13.55
2022-10-16T10:40:29.506Z,13.50
2022-10-16T10:44:11.519Z,13.58
2022-10-16T10:48:11.472Z,13.55
2022-10-16T10:51:37.469Z,13.53
2022-10-16T10:55:13.500Z,13.48
2022-10-16T10:58:54.523Z,13.57
2022-10-16T11:03:12.491Z,13.49
2022-10-16T11:06:38.524Z,13.37
2022-10-16T11:10:09.527Z,13.51
2022-10-16T11:13:48.540Z,13.41
2022-10-16T11:17:15.495Z,13.54
2022-10-16T11:21:03.510Z,13.49
2022-10-16T11:24:35.493Z,13.43
2022-10-16T11:28:07.540Z,13.41
2022-10-16T11:31:52.516Z,13.27
2022-10-16T11:35:27.516Z,13.32
2022-10-16T11:39:09.520Z,13.40
2022-10-16T11:42:35.518Z,13.24
2022-10-16T11:46:12.507Z,13.19
2022-10-16T11:49:38.495Z,12.90
2022-10-16T11:53:09.495Z,12.79
2022-10-16T11:56:35.551Z,12.51
2022-10-16T12:00:05.538Z,12.60
2022-10-16T12:03:56.558Z,12.47
2022-10-16T12:07:24.223Z,12.79
2022-10-16T12:10:45.548Z,12.87
2022-10-16T12:14:28.522Z,12.80
2022-10-16T12:17:54.557Z,12.71
2022-10-16T12:21:17.524Z,12.65
2022-10-16T12:24:57.547Z,12.60
2022-10-16T12:28:38.559Z,12.42
2022-10-16T12:32:03.496Z,12.27
2022-10-16T12:35:38.544Z,12.12
2022-10-16T12:39:03.546Z,12.08
2022-10-16T12:42:55.492Z,12.12
2022-10-16T12:46:54.571Z,11.94
2022-10-16T12:50:19.520Z,11.75
2022-10-16T12:53:43.571Z,12.12
2022-10-16T12:57:45.484Z,12.39
2022-10-16T13:01:46.582Z,12.61
2022-10-16T13:05:41.528Z,13.09
2022-10-16T13:09:26.568Z,13.20
2022-10-16T13:13:02.554Z,13.29
2022-10-16T13:16:32.652Z,13.30
2022-10-16T13:20:22.530Z,13.28
2022-10-16T13:23:53.588Z,13.37
2022-10-16T13:27:23.516Z,13.54
2022-10-16T13:30:57.555Z,13.51
2022-10-16T13:34:22.542Z,13.43
2022-10-16T13:37:46.548Z,13.42
2022-10-16T13:41:16.547Z,13.50
2022-10-16T13:44:39.594Z,13.39
2022-10-16T13:48:03.534Z,13.34
2022-10-16T13:51:34.577Z,13.22
2022-10-16T13:55:01.052Z,13.10
2022-10-16T13:58:29.557Z,13.11
2022-10-16T14:01:57.611Z,13.18
2022-10-16T14:05:24.694Z,13.43
2022-10-16T14:08:47.544Z,13.49
2022-10-16T14:12:17.564Z,13.56
2022-10-16T14:15:41.549Z,13.66
2022-10-16T14:19:19.589Z,13.62
2022-10-16T14:22:56.535Z,13.49
2022-10-16T14:26:28.614Z,13.47
2022-10-16T14:29:53.581Z,13.63
2022-10-16T14:33:20.600Z,13.73
2022-10-16T14:36:44.611Z,13.73
2022-10-16T14:40:08.598Z,13.68
2022-10-16T14:43:38.583Z,13.80
2022-10-16T14:47:01.586Z,13.80
2022-10-16T14:50:24.591Z,13.78
2022-10-16T14:53:47.580Z,13.79
2022-10-16T14:57:13.627Z,13.76
2022-10-16T15:00:38.576Z,13.63
2022-10-16T15:04:03.662Z,13.62
2022-10-16T15:07:35.602Z,13.56
2022-10-16T15:10:59.609Z,13.51
2022-10-16T15:14:28.552Z,13.60
2022-10-16T15:17:52.618Z,13.63
2022-10-16T15:21:15.581Z,13.59
2022-10-16T15:24:39.606Z,13.54
2022-10-16T15:28:03.584Z,13.59
2022-10-16T15:31:27.622Z,13.58
2022-10-16T15:34:52.625Z,13.49
2022-10-16T15:38:15.622Z,13.35
2022-10-16T15:45:07.625Z,13.50
2022-10-16T15:48:31.602Z,13.62
2022-10-16T15:51:57.586Z,13.70
2022-10-16T15:55:23.627Z,13.80
2022-10-16T15:58:46.578Z,13.66
2022-10-16T16:02:11.707Z,13.64
2022-10-16T16:05:36.600Z,13.46
2022-10-16T16:08:59.665Z,13.40
2022-10-16T16:12:18.156Z,13.28
2022-10-16T16:15:35.647Z,13.16
2022-10-16T16:18:58.644Z,12.86
2022-10-16T16:22:22.613Z,12.86
2022-10-16T16:25:46.598Z,12.79
2022-10-16T16:29:11.649Z,12.81
2022-10-16T16:32:34.626Z,12.97
2022-10-16T16:35:57.653Z,13.00
2022-10-16T16:39:21.639Z,13.12
2022-10-16T16:42:44.652Z,13.10
2022-10-16T16:46:07.640Z,12.94
2022-10-16T16:49:31.629Z,12.82
2022-10-16T16:52:56.676Z,12.86
2022-10-16T16:56:21.626Z,12.98
2022-10-16T16:59:46.667Z,12.97
2022-10-16T17:03:12.658Z,12.98
2022-10-16T17:06:38.632Z,13.04
2022-10-16T17:10:02.659Z,13.11
2022-10-16T17:13:19.304Z,13.22
2022-10-16T17:16:43.781Z,13.16
2022-10-16T17:20:06.623Z,13.08
2022-10-16T17:23:30.674Z,13.09
2022-10-16T17:26:56.651Z,13.08
2022-10-16T17:30:20.674Z,12.98
2022-10-16T17:33:45.674Z,12.97
2022-10-16T17:37:08.720Z,13.01
2022-10-16T17:40:32.653Z,13.07
2022-10-16T17:43:56.724Z,13.00
2022-10-16T17:47:19.615Z,13.12
2022-10-16T17:50:43.675Z,13.09
2022-10-16T17:54:07.650Z,13.20
2022-10-16T17:57:31.671Z,13.23
2022-10-16T18:00:54.657Z,13.40
2022-10-16T18:04:20.668Z,13.61
2022-10-16T18:07:44.654Z,13.55
2022-10-16T18:11:08.711Z,13.62
2022-10-16T18:14:26.261Z,13.61
2022-10-16T18:17:47.705Z,13.66
2022-10-16T18:21:15.670Z,13.68
2022-10-16T18:24:39.702Z,13.70
2022-10-16T18:28:03.667Z,13.82
2022-10-16T18:31:32.914Z,13.95
2022-10-16T18:34:57.667Z,13.85
2022-10-16T18:38:20.705Z,13.80
2022-10-16T18:41:43.686Z,13.92
2022-10-16T18:45:06.677Z,13.82
2022-10-16T18:48:29.677Z,13.86
2022-10-16T18:51:56.706Z,13.95
2022-10-16T18:55:20.714Z,13.87
2022-10-16T18:58:45.723Z,13.88
2022-10-16T19:02:09.749Z,13.90
2022-10-16T19:05:32.686Z,14.02
2022-10-16T19:08:56.710Z,14.03
2022-10-16T19:12:19.692Z,14.12
2022-10-16T19:15:44.402Z,14.39
2022-10-16T19:19:09.706Z,14.37
2022-10-16T19:22:38.736Z,14.35
2022-10-16T19:26:01.664Z,14.30
2022-10-16T19:29:25.856Z,14.29
2022-10-16T19:32:49.694Z,14.26
2022-10-16T19:36:30.829Z,14.24
2022-10-16T19:39:54.680Z,14.22
2022-10-16T19:43:17.829Z,14.23
2022-10-16T19:46:42.695Z,14.16
2022-10-16T19:50:06.737Z,14.10
2022-10-16T19:53:30.751Z,14.05
2022-10-16T19:56:53.735Z,14.11
2022-10-16T20:00:22.701Z,14.20
2022-10-16T20:03:47.732Z,14.17
2022-10-16T20:07:12.691Z,14.27
2022-10-16T20:10:35.742Z,14.45
2022-10-16T20:13:58.723Z,14.46
2022-10-16T20:17:14.728Z,14.42
2022-10-16T20:20:38.729Z,14.40
2022-10-16T20:24:01.706Z,14.73
2022-10-16T20:27:25.961Z,15.11
2022-10-16T20:30:55.751Z,16.56
2022-10-16T20:34:21.734Z,16.54
2022-10-16T20:37:45.750Z,16.61
2022-10-16T20:41:09.723Z,17.13
2022-10-16T20:44:32.756Z,16.56
2022-10-16T20:47:55.737Z,16.74
2022-10-16T20:51:32.760Z,17.25
2022-10-16T20:54:55.737Z,17.35
2022-10-16T20:58:20.743Z,17.78
2022-10-16T21:01:44.807Z,17.96
2022-10-16T21:05:09.751Z,18.09
2022-10-16T21:08:32.718Z,17.85
2022-10-16T21:11:55.759Z,18.12
2022-10-16T21:15:18.771Z,17.63
2022-10-16T21:18:38.771Z,18.86
2022-10-16T21:22:00.822Z,19.82
2022-10-16T21:25:25.719Z,19.35
2022-10-16T21:28:48.837Z,19.58
2022-10-16T21:32:12.759Z,19.43
2022-10-16T21:35:35.747Z,19.40
2022-10-16T21:38:59.755Z,20.15
2022-10-16T21:42:23.754Z,19.79
2022-10-16T21:45:49.767Z,19.36
2022-10-16T21:49:15.736Z,18.82
2022-10-16T21:52:38.798Z,18.97
2022-10-16T21:56:02.773Z,20.21
2022-10-16T21:59:27.774Z,20.30
2022-10-16T22:02:50.775Z,20.55
2022-10-16T22:06:18.818Z,20.77
2022-10-16T22:09:42.785Z,21.08
2022-10-16T22:13:05.730Z,20.71
2022-10-16T22:16:28.795Z,20.92
2022-10-16T22:19:45.370Z,19.97
2022-10-16T22:23:04.780Z,21.14
2022-10-16T22:26:27.766Z,21.27
2022-10-16T22:29:50.773Z,20.14
2022-10-16T22:33:14.808Z,20.53
2022-10-16T22:36:39.767Z,21.28
2022-10-16T22:40:02.809Z,21.03
2022-10-16T22:43:26.749Z,20.98
2022-10-16T22:46:49.801Z,21.97
2022-10-16T22:50:12.797Z,22.17
2022-10-16T22:53:35.778Z,21.51
2022-10-16T22:56:59.785Z,22.39
2022-10-16T23:00:24.813Z,22.47
2022-10-16T23:03:48.806Z,22.25
2022-10-16T23:07:12.772Z,22.01
2022-10-16T23:10:37.885Z,21.92
2022-10-16T23:14:01.790Z,22.19
2022-10-16T23:17:25.811Z,22.33
2022-10-16T23:20:43.404Z,22.22
2022-10-16T23:24:02.826Z,22.35
2022-10-16T23:27:27.793Z,22.69
2022-10-16T23:30:50.790Z,22.42
2022-10-16T23:34:14.794Z,22.12
2022-10-16T23:37:37.805Z,21.99
2022-10-16T23:41:00.794Z,22.17
2022-10-16T23:44:23.840Z,21.61
2022-10-16T23:47:49.779Z,21.12
2022-10-16T23:51:14.833Z,21.48
2022-10-16T23:54:37.792Z,21.59
2022-10-16T23:58:00.837Z,21.06
